Salem, MA (01970)

3:06 AM EDT on September 04, 2015 (GMT -0400)
Essex Street near Beckford | | Change Station
CLOSE
Current Station
Personal Weather Station
Location: Salem, MA
Elevation: 46 ft
Nearby Weather Stations

Elev 46 ft 42.52 °N, 70.90 °W | Updated 45 minutes ago

Overcast
Overcast
71.2 °F
Feels Like 71.2 °F
N
0.0
Wind Variable Wind from SE
Gusts 0.0 mph

Today
High -- | Low -- °F
--% Chance of Precip.
Yesterday
High -- | Low -- °F
Precip. -- in
6:11 AM 7:13 PM
Waning Gibbous, 62% visible
Pressure 29.95 in
Visibility 6.0 miles
Clouds Few 4400 ft
Mostly Cloudy 7000 ft
Overcast 8500 ft
Dew Point 68 °F
Humidity 91%
Rainfall 0.00 in
Snow Depth Not available.
UV 0 out of 12
Pollen 8.60 out of 12
Air Quality Not available.
Flu Activity Not available.
METAR KBVY 040653Z AUTO 36007KT 6SM BR FEW044 BKN070 OVC085 21/19 A2996 RMK AO2 SLP140 T02110194
Pressure 29.95 in
Visibility 6.0 miles
Clouds Few 4400 ft
Mostly Cloudy 7000 ft
Overcast 8500 ft
Dew Point 68 °F
Humidity 91%
Rainfall 0.00 in
Snow Depth Not available.
UV 0 out of 12
Pollen 8.60 out of 12
Air Quality Not available.
Flu Activity Not available.
METAR KBVY 040653Z AUTO 36007KT 6SM BR FEW044 BKN070 OVC085 21/19 A2996 RMK AO2 SLP140 T02110194

10-Day Weather Forecast

×

Almanac

Astronomy

Sep. 04, 2015 Rise Set
Actual Time
Civil Twilight
Nautical Twilight
Astronomical Twilight
Moon
Length of Visible Light
Length of Day
Tomorrow will be .
, % of the Moon is Illuminated

Today's Extremes

State Highs State Lows

Community

WunderPhotos

Upload Photos

1,852,132 photos uploaded!

WunderBlogs® & News

Nearby

Air Quality

  Air Quality AQ Index Pollutant
Not available.

Snow Depth

Station Depth Elevation

Earthquake Activity

City Distance Mag. Time & Date
Minimum magnitude displayed is 2.5.

Coastal Water Temperatures

Place Temperature

Stations

Nearby Weather Stations

Station Location Temp. Windchill Dew Point Humidity Wind Precip. Elev Updated Type